createdAt,value
2018-11-13T11:51:36.581Z,34.78
2018-11-13T11:57:31.593Z,34.28
2018-11-13T12:03:26.569Z,33.62
2018-11-13T12:09:21.583Z,32.94
2018-11-13T12:15:16.597Z,31.99
2018-11-13T12:21:11.665Z,35
2018-11-13T12:27:06.600Z,34.46
2018-11-13T12:33:01.596Z,33.37
2018-11-13T12:38:56.702Z,33.41
2018-11-13T12:44:51.603Z,33.15
2018-11-13T12:50:46.643Z,37.12
2018-11-13T12:56:41.671Z,38
2018-11-13T13:02:36.633Z,40.14
2018-11-13T13:08:31.694Z,40.8
2018-11-13T13:14:26.641Z,38.6
2018-11-13T13:20:21.649Z,37.16
2018-11-13T13:26:16.657Z,38.34
2018-11-13T13:32:11.646Z,38.25
2018-11-13T13:38:06.642Z,36.71
2018-11-13T13:44:01.655Z,34.1
2018-11-13T13:49:56.663Z,33.02
2018-11-13T13:55:51.679Z,34.16
2018-11-13T14:01:46.719Z,32.69
2018-11-13T14:07:41.707Z,33.06
2018-11-13T14:13:36.713Z,32.89
2018-11-13T14:19:31.709Z,32.96
2018-11-13T14:25:26.747Z,33.44
2018-11-13T14:31:21.722Z,35.52
2018-11-13T14:37:16.716Z,38.04
2018-11-13T14:43:11.752Z,36.06
2018-11-13T14:49:06.730Z,38.48
2018-11-13T14:55:01.729Z,33.9
2018-11-13T15:00:56.777Z,35.33
2018-11-13T15:06:51.740Z,33.31
2018-11-13T15:12:46.735Z,35.12
2018-11-13T15:18:41.745Z,33.47
2018-11-13T15:24:36.817Z,34.03
2018-11-13T15:30:31.787Z,34.73
2018-11-13T15:36:26.789Z,36.9
2018-11-13T15:42:21.762Z,32.5
2018-11-13T15:48:16.786Z,39.63
2018-11-13T15:54:11.799Z,38.36
2018-11-13T16:00:06.846Z,38.02
2018-11-13T16:06:01.818Z,36.79
2018-11-13T16:11:56.802Z,35.91
2018-11-13T16:17:51.852Z,37.72
2018-11-13T16:23:46.822Z,37.01
2018-11-13T16:29:41.852Z,33.73
2018-11-13T16:35:36.903Z,34.62
2018-11-13T16:41:31.892Z,33.37
2018-11-13T16:47:26.872Z,37.04
2018-11-13T16:53:21.852Z,37.9
2018-11-13T16:59:16.849Z,34.65
2018-11-13T17:05:11.866Z,30.4
2018-11-13T17:11:06.914Z,29.22
2018-11-13T17:17:01.861Z,29.11
2018-11-13T17:22:56.893Z,28.12
2018-11-13T17:28:51.870Z,31.69
2018-11-13T17:34:46.864Z,31.13
2018-11-13T17:40:41.926Z,23.65
2018-11-13T17:46:36.925Z,24.5
2018-11-13T17:52:31.883Z,23.25
2018-11-13T17:58:26.901Z,23.15
2018-11-13T18:04:21.949Z,25.3
2018-11-13T18:10:16.900Z,25.48
2018-11-13T18:16:11.938Z,24.39
2018-11-13T18:22:07.105Z,18.54
2018-11-13T18:28:02.285Z,19.31
2018-11-13T18:33:56.946Z,19.23
2018-11-13T18:39:51.948Z,20.2
2018-11-13T18:45:46.967Z,21.33
2018-11-13T18:51:41.954Z,21.26
2018-11-13T18:57:36.953Z,22.2
2018-11-13T19:03:31.967Z,22.63
2018-11-13T19:09:26.951Z,26.11
2018-11-13T19:15:21.995Z,28.09
2018-11-13T19:21:17.160Z,28.84
2018-11-13T19:27:11.984Z,25.26
2018-11-13T19:33:06.978Z,22.18
2018-11-13T19:39:01.967Z,24
2018-11-13T19:44:56.988Z,22.8
2018-11-13T19:50:51.982Z,26.88
2018-11-13T19:56:46.998Z,25.58
2018-11-13T20:02:42.022Z,21.88
2018-11-13T20:08:37.005Z,26.43
2018-11-13T20:14:31.993Z,21.56
2018-11-13T20:20:27.006Z,22.47
2018-11-13T20:26:22.041Z,24.8
2018-11-13T20:32:17.038Z,27.17
2018-11-13T20:38:12.048Z,25.98
2018-11-13T20:44:07.032Z,28.64
2018-11-13T20:50:02.168Z,30
2018-11-13T20:55:57.081Z,30.14
2018-11-13T21:01:52.138Z,30.84
2018-11-13T21:07:47.170Z,29.78
2018-11-13T21:13:42.084Z,31.61
2018-11-13T21:19:37.075Z,32.89
2018-11-13T21:25:32.076Z,31.71
2018-11-13T21:31:27.074Z,30.34
2018-11-13T21:37:22.102Z,32.33
2018-11-13T21:43:17.161Z,31.2
2018-11-13T21:49:12.149Z,32.4
2018-11-13T21:55:07.126Z,32.3
2018-11-13T22:01:02.125Z,31.54
2018-11-13T22:06:57.181Z,24.5
2018-11-13T22:12:52.147Z,22.9
2018-11-13T22:18:47.115Z,24.12
2018-11-13T22:24:42.129Z,25.69
2018-11-13T22:30:37.170Z,27.84
2018-11-13T22:36:32.538Z,25.62
2018-11-13T22:42:27.170Z,23.16
2018-11-13T22:48:22.162Z,20.29
2018-11-13T22:54:17.226Z,19.11
2018-11-13T23:00:12.185Z,21.75
2018-11-13T23:06:07.176Z,24.34
2018-11-13T23:12:02.295Z,28.88
2018-11-13T23:17:57.166Z,31.01
2018-11-13T23:23:52.205Z,23.69
2018-11-13T23:29:47.215Z,22.55
2018-11-13T23:35:42.203Z,21.5
2018-11-13T23:41:37.186Z,23.67
2018-11-13T23:47:32.262Z,23.5
2018-11-13T23:53:27.275Z,26.78
2018-11-13T23:59:22.205Z,25.77
